createdAt,value
2023-01-04T00:02:22.151Z,10.80
2023-01-04T00:05:24.375Z,10.70
2023-01-04T00:08:26.911Z,10.70
2023-01-04T00:11:29.742Z,10.70
2023-01-04T00:14:32.086Z,10.70
2023-01-04T00:17:34.544Z,10.70
2023-01-04T00:20:36.787Z,10.70
2023-01-04T00:23:39.923Z,10.70
2023-01-04T00:26:43.618Z,10.70
2023-01-04T00:29:47.028Z,10.70
2023-01-04T00:32:49.234Z,10.70
2023-01-04T00:35:52.696Z,10.70
2023-01-04T00:39:08.674Z,10.60
2023-01-04T00:42:12.760Z,10.60
2023-01-04T00:45:15.706Z,10.60
2023-01-04T00:48:17.818Z,10.60
2023-01-04T00:51:20.013Z,10.60
2023-01-04T00:54:22.324Z,10.60
2023-01-04T00:57:24.420Z,10.60
2023-01-04T01:00:26.607Z,10.60
2023-01-04T01:03:33.301Z,10.60
2023-01-04T01:06:39.438Z,10.60
2023-01-04T01:09:42.461Z,10.60
2023-01-04T01:12:44.991Z,10.50
2023-01-04T01:15:47.263Z,10.50
2023-01-04T01:18:49.851Z,10.50
2023-01-04T01:21:52.036Z,10.50
2023-01-04T01:24:54.171Z,10.50
2023-01-04T01:27:56.691Z,10.50
2023-01-04T01:31:05.019Z,10.40
2023-01-04T01:34:10.765Z,10.40
2023-01-04T01:37:12.860Z,10.40
2023-01-04T01:40:16.599Z,10.40
2023-01-04T01:43:20.428Z,10.30
2023-01-04T01:46:31.871Z,10.30
2023-01-04T01:49:38.690Z,10.30
2023-01-04T01:52:41.749Z,10.30
2023-01-04T01:55:46.663Z,10.20
2023-01-04T01:58:52.532Z,10.20
2023-01-04T02:01:54.800Z,10.20
2023-01-04T02:04:58.901Z,10.20
2023-01-04T02:08:02.748Z,10.20
2023-01-04T02:11:05.909Z,10.20
2023-01-04T02:14:27.875Z,10.20
2023-01-04T02:17:41.138Z,10.20
2023-01-04T02:20:51.942Z,10.20
2023-01-04T02:24:09.174Z,10.10
2023-01-04T02:27:24.777Z,10.10
2023-01-04T02:30:45.302Z,10.10
2023-01-04T02:34:00.905Z,10.10
2023-01-04T02:37:18.883Z,10.10
2023-01-04T02:40:55.406Z,10.10
2023-01-04T02:44:30.826Z,10.10
2023-01-04T02:47:57.448Z,10.10
2023-01-04T02:51:01.030Z,10.10
2023-01-04T02:54:14.009Z,10.10
2023-01-04T02:57:43.003Z,10.00
2023-01-04T03:01:52.009Z,10.00
2023-01-04T03:05:27.831Z,10.00
2023-01-04T03:08:48.610Z,10.00
2023-01-04T03:12:20.863Z,10.00
2023-01-04T03:15:28.458Z,10.00
2023-01-04T03:18:35.320Z,9.90
2023-01-04T03:21:43.132Z,9.90
2023-01-04T03:25:04.349Z,9.90
2023-01-04T03:28:26.212Z,9.90
2023-01-04T03:32:12.142Z,9.90
2023-01-04T03:35:23.464Z,9.90
2023-01-04T03:39:04.552Z,9.90
2023-01-04T03:42:49.474Z,9.90
2023-01-04T03:46:16.968Z,9.80
2023-01-04T03:49:25.493Z,9.80
2023-01-04T03:52:30.513Z,9.80
2023-01-04T03:55:33.618Z,9.70
2023-01-04T03:58:36.877Z,9.70
2023-01-04T04:01:42.035Z,9.70
2023-01-04T04:05:02.557Z,9.70
2023-01-04T04:08:23.795Z,9.70
2023-01-04T04:11:32.135Z,9.60
2023-01-04T04:14:34.451Z,9.60
2023-01-04T04:17:36.656Z,9.60
2023-01-04T04:20:38.849Z,9.50
2023-01-04T04:23:40.967Z,9.50
2023-01-04T04:26:43.183Z,9.50
2023-01-04T04:29:45.295Z,9.50
2023-01-04T04:32:47.505Z,9.40
2023-01-04T04:35:54.194Z,9.40
2023-01-04T04:38:56.339Z,9.40
2023-01-04T04:41:58.534Z,9.40
2023-01-04T04:45:00.605Z,9.40
2023-01-04T04:48:02.889Z,9.40
2023-01-04T04:51:05.548Z,9.40
2023-01-04T04:54:09.387Z,9.40
2023-01-04T04:57:11.559Z,9.40
2023-01-04T05:00:14.518Z,9.40
2023-01-04T05:03:16.682Z,9.40
2023-01-04T05:06:19.032Z,9.40
2023-01-04T05:09:21.204Z,9.40
2023-01-04T05:12:41.917Z,9.40
2023-01-04T05:15:56.263Z,9.40
2023-01-04T05:19:00.099Z,9.40
2023-01-04T05:22:02.276Z,9.50
2023-01-04T05:25:04.686Z,9.50
2023-01-04T05:28:09.883Z,9.50
2023-01-04T05:31:12.168Z,9.50
2023-01-04T05:34:18.627Z,9.50
2023-01-04T05:37:25.958Z,9.50
2023-01-04T05:40:28.719Z,9.40
2023-01-04T05:43:30.994Z,9.40
2023-01-04T05:46:33.235Z,9.40
2023-01-04T05:49:35.509Z,9.40
2023-01-04T05:52:40.225Z,9.40
2023-01-04T05:55:42.463Z,9.30
2023-01-04T05:58:44.568Z,9.30
2023-01-04T06:01:46.986Z,9.30
2023-01-04T06:04:56.383Z,9.30
2023-01-04T06:08:00.703Z,9.20
2023-01-04T06:11:03.095Z,9.20
2023-01-04T06:14:05.267Z,9.20
2023-01-04T06:17:07.959Z,9.20
2023-01-04T06:20:11.371Z,9.10
2023-01-04T06:23:14.268Z,9.10
2023-01-04T06:26:16.738Z,9.10
2023-01-04T06:29:18.931Z,9.10
2023-01-04T06:32:21.225Z,9.10
2023-01-04T06:35:23.257Z,9.10
2023-01-04T06:38:25.637Z,9.00
2023-01-04T06:41:29.991Z,9.00
2023-01-04T06:44:33.092Z,9.00
2023-01-04T06:47:35.301Z,9.00
2023-01-04T06:50:37.909Z,9.00
2023-01-04T06:53:40.179Z,9.00
2023-01-04T06:56:42.606Z,9.00
2023-01-04T06:59:44.672Z,8.90
2023-01-04T07:03:14.555Z,8.80
2023-01-04T07:06:09.233Z,8.80
2023-01-04T07:09:11.388Z,8.70
2023-01-04T07:12:13.615Z,8.70
2023-01-04T07:15:39.168Z,8.70
2023-01-04T07:18:38.758Z,8.70
2023-01-04T07:21:41.489Z,8.70
2023-01-04T07:24:45.995Z,8.70
2023-01-04T07:27:54.933Z,8.70
2023-01-04T07:30:57.193Z,8.80
2023-01-04T07:34:03.486Z,8.80
2023-01-04T07:37:09.366Z,8.90
2023-01-04T07:40:12.793Z,8.90
2023-01-04T07:43:14.979Z,8.90
2023-01-04T07:46:29.105Z,8.90
2023-01-04T07:49:31.960Z,8.90
2023-01-04T07:52:34.144Z,8.90
2023-01-04T07:55:36.221Z,8.90
2023-01-04T07:58:40.122Z,8.90
2023-01-04T08:01:43.220Z,9.00
2023-01-04T08:04:47.762Z,9.00
2023-01-04T08:07:50.213Z,9.00
2023-01-04T08:10:54.656Z,9.00
2023-01-04T08:13:59.127Z,9.00
2023-01-04T08:17:01.280Z,9.20
2023-01-04T08:20:03.919Z,9.90
2023-01-04T08:23:07.631Z,10.90
2023-01-04T08:26:18.231Z,11.70
2023-01-04T08:29:21.965Z,12.50
2023-01-04T08:32:24.154Z,13.20
2023-01-04T08:35:29.764Z,14.00
2023-01-04T08:38:59.452Z,14.80
2023-01-04T08:42:02.627Z,15.70
2023-01-04T08:45:08.816Z,16.90
2023-01-04T08:48:10.931Z,17.20
2023-01-04T08:51:15.221Z,17.80
2023-01-04T08:54:17.866Z,19.00
2023-01-04T08:57:20.451Z,19.70
2023-01-04T09:00:23.095Z,20.60
2023-01-04T09:03:25.423Z,21.20
2023-01-04T09:06:27.813Z,21.70
2023-01-04T09:09:30.390Z,22.00
2023-01-04T09:12:32.616Z,21.70
2023-01-04T09:15:35.888Z,21.80
2023-01-04T09:18:38.434Z,21.80
2023-01-04T09:21:41.481Z,21.70
2023-01-04T09:24:43.770Z,21.50
2023-01-04T09:27:45.894Z,22.40
2023-01-04T09:30:47.967Z,22.20
2023-01-04T09:37:14.938Z,21.30
2023-01-04T09:40:27.133Z,21.60
2023-01-04T09:43:33.874Z,22.00
2023-01-04T09:46:57.977Z,22.90
2023-01-04T09:50:27.109Z,23.50
2023-01-04T09:53:50.774Z,23.70
2023-01-04T09:57:00.813Z,23.80
2023-01-04T10:00:29.029Z,23.60
2023-01-04T10:03:39.061Z,24.40
2023-01-04T10:06:41.459Z,24.40
2023-01-04T10:09:43.849Z,24.90
2023-01-04T10:13:05.405Z,25.30
2023-01-04T10:16:52.560Z,25.40
2023-01-04T10:23:35.243Z,24.10
2023-01-04T10:26:48.477Z,24.30
2023-01-04T10:29:59.517Z,24.60
2023-01-04T10:33:12.469Z,24.70
2023-01-04T10:36:23.829Z,24.50
2023-01-04T10:39:33.119Z,23.80
2023-01-04T10:42:47.344Z,24.80
2023-01-04T10:46:04.602Z,24.50
2023-01-04T10:49:35.419Z,23.50
2023-01-04T10:52:56.927Z,23.50
2023-01-04T10:56:30.035Z,23.80
2023-01-04T10:59:35.296Z,24.60
2023-01-04T11:02:45.230Z,23.80
2023-01-04T11:05:59.359Z,23.60
2023-01-04T11:09:07.486Z,24.60
2023-01-04T11:12:13.903Z,24.30
2023-01-04T11:15:16.287Z,23.90
2023-01-04T11:18:19.250Z,24.80
2023-01-04T11:21:27.773Z,25.70
2023-01-04T11:24:33.171Z,26.40
2023-01-04T11:27:46.786Z,27.00
2023-01-04T11:31:10.438Z,25.60
2023-01-04T11:34:12.901Z,25.30
2023-01-04T11:37:33.891Z,25.00
2023-01-04T11:40:36.231Z,25.10
2023-01-04T11:43:40.202Z,26.20
2023-01-04T11:46:42.623Z,25.60
2023-01-04T11:49:45.297Z,25.00
2023-01-04T11:52:50.422Z,24.50
2023-01-04T11:56:12.145Z,24.50
2023-01-04T11:59:25.194Z,24.70
2023-01-04T12:03:00.709Z,23.80
2023-01-04T12:05:50.394Z,22.00
2023-01-04T12:08:52.811Z,20.00
2023-01-04T12:11:57.399Z,19.00
2023-01-04T12:15:10.126Z,18.50
2023-01-04T12:18:37.274Z,17.60
2023-01-04T12:21:41.067Z,16.90
2023-01-04T12:24:45.767Z,16.40
2023-01-04T12:27:50.039Z,16.20
2023-01-04T12:30:52.278Z,15.80
2023-01-04T12:33:56.719Z,15.60
2023-01-04T12:37:05.320Z,15.40
2023-01-04T12:40:48.897Z,15.20
2023-01-04T12:43:53.370Z,14.90
2023-01-04T12:47:14.078Z,14.70
2023-01-04T12:50:23.446Z,14.60
2023-01-04T12:53:56.829Z,14.50
2023-01-04T12:57:17.351Z,14.20
2023-01-04T13:00:20.128Z,14.20
2023-01-04T13:03:25.036Z,14.30
2023-01-04T13:06:29.648Z,14.10
2023-01-04T13:09:33.739Z,14.00
2023-01-04T13:12:38.972Z,13.90
2023-01-04T13:15:49.866Z,14.00
2023-01-04T13:18:57.775Z,14.10
2023-01-04T13:22:00.804Z,14.10
2023-01-04T13:25:06.772Z,14.00
2023-01-04T13:28:18.507Z,14.00
2023-01-04T13:31:20.916Z,14.00
2023-01-04T13:34:26.633Z,14.00
2023-01-04T13:37:31.735Z,14.00
2023-01-04T13:40:36.176Z,13.90
2023-01-04T13:44:11.422Z,14.00
2023-01-04T13:47:13.814Z,14.00
2023-01-04T13:50:36.051Z,14.00
2023-01-04T13:53:39.154Z,14.10
2023-01-04T13:56:41.318Z,14.10
2023-01-04T13:59:43.345Z,14.10
2023-01-04T14:02:45.670Z,14.00
2023-01-04T14:05:50.746Z,14.10
2023-01-04T14:09:01.393Z,14.10
2023-01-04T14:12:16.104Z,14.20
2023-01-04T14:15:25.491Z,14.20
2023-01-04T14:18:31.675Z,14.30
2023-01-04T14:21:36.972Z,14.30
2023-01-04T14:25:08.491Z,14.40
2023-01-04T14:28:22.794Z,14.40
2023-01-04T14:31:31.539Z,14.30
2023-01-04T14:34:36.769Z,14.30
2023-01-04T14:37:39.025Z,14.30
2023-01-04T14:40:41.818Z,14.40
2023-01-04T14:44:00.029Z,14.40
2023-01-04T14:47:06.569Z,14.40
2023-01-04T14:50:09.309Z,14.50
2023-01-04T14:53:20.903Z,14.50
2023-01-04T14:56:23.132Z,14.50
2023-01-04T14:59:26.900Z,14.60
2023-01-04T15:02:30.520Z,14.60
2023-01-04T15:05:37.570Z,14.60
2023-01-04T15:08:39.947Z,14.60
2023-01-04T15:11:42.254Z,14.50
2023-01-04T15:14:44.532Z,14.60
2023-01-04T15:17:46.852Z,14.60
2023-01-04T15:20:49.178Z,14.60
2023-01-04T15:23:51.302Z,14.60
2023-01-04T15:26:53.424Z,14.70
2023-01-04T15:29:55.476Z,14.70
2023-01-04T15:32:57.648Z,14.70
2023-01-04T15:36:05.121Z,14.70
2023-01-04T15:39:08.498Z,14.70
2023-01-04T15:42:30.933Z,14.80
2023-01-04T15:45:38.109Z,14.80
2023-01-04T15:48:40.151Z,14.70
2023-01-04T15:51:42.307Z,14.70
2023-01-04T15:54:44.531Z,14.60
2023-01-04T15:57:46.687Z,14.60
2023-01-04T16:00:56.444Z,14.60
2023-01-04T16:04:00.727Z,14.70
2023-01-04T16:07:03.627Z,14.60
2023-01-04T16:10:06.213Z,14.60
2023-01-04T16:13:08.557Z,14.60
2023-01-04T16:16:11.302Z,14.60
2023-01-04T16:19:13.551Z,14.60
2023-01-04T16:22:15.710Z,14.60
2023-01-04T16:25:18.193Z,14.60
2023-01-04T16:28:20.268Z,14.60
2023-01-04T16:31:23.336Z,14.60
2023-01-04T16:34:25.744Z,14.50
2023-01-04T16:37:30.861Z,14.50
2023-01-04T16:40:32.889Z,14.50
2023-01-04T16:43:44.755Z,14.50
2023-01-04T16:46:47.195Z,14.50
2023-01-04T16:49:53.228Z,14.50
2023-01-04T16:52:55.374Z,14.40
2023-01-04T16:55:57.580Z,14.40
2023-01-04T16:59:00.900Z,14.40
2023-01-04T17:02:03.261Z,14.40
2023-01-04T17:05:06.081Z,14.30
2023-01-04T17:08:08.829Z,14.30
2023-01-04T17:12:04.908Z,14.30
2023-01-04T17:14:39.137Z,14.20
2023-01-04T17:17:42.388Z,14.20
2023-01-04T17:20:44.519Z,14.10
2023-01-04T17:23:48.576Z,14.10
2023-01-04T17:26:50.857Z,14.00
2023-01-04T17:29:54.306Z,14.00
2023-01-04T17:32:59.196Z,13.90
2023-01-04T17:36:08.509Z,13.90
2023-01-04T17:39:11.007Z,13.90
2023-01-04T17:42:13.065Z,13.80
2023-01-04T17:45:15.379Z,13.80
2023-01-04T17:48:18.818Z,13.80
2023-01-04T17:51:26.227Z,13.70
2023-01-04T17:54:28.314Z,13.70
2023-01-04T17:57:32.279Z,13.70
2023-01-04T18:00:34.602Z,13.70
2023-01-04T18:03:40.187Z,13.70
2023-01-04T18:06:45.031Z,13.70
2023-01-04T18:09:47.180Z,13.70
2023-01-04T18:12:49.325Z,13.60
2023-01-04T18:16:18.163Z,13.60
2023-01-04T18:19:13.510Z,13.60
2023-01-04T18:22:16.306Z,13.60
2023-01-04T18:25:19.612Z,13.50
2023-01-04T18:28:21.815Z,13.50
2023-01-04T18:31:24.427Z,13.50
2023-01-04T18:34:27.701Z,13.40
2023-01-04T18:37:30.121Z,13.40
2023-01-04T18:40:32.239Z,13.30
2023-01-04T18:43:36.218Z,13.30
2023-01-04T18:46:39.617Z,13.20
2023-01-04T18:49:41.946Z,13.20
2023-01-04T18:52:44.981Z,13.10
2023-01-04T18:55:47.112Z,13.10
2023-01-04T18:58:50.968Z,13.10
2023-01-04T19:01:54.825Z,13.00
2023-01-04T19:04:57.094Z,13.00
2023-01-04T19:07:59.129Z,13.00
2023-01-04T19:11:02.615Z,13.00
2023-01-04T19:14:04.798Z,12.90
2023-01-04T19:17:06.973Z,12.90
2023-01-04T19:20:09.432Z,12.90
2023-01-04T19:23:11.585Z,12.90
2023-01-04T19:26:14.124Z,12.80
2023-01-04T19:29:16.203Z,12.80
2023-01-04T19:32:21.128Z,12.80
2023-01-04T19:35:23.430Z,12.80
2023-01-04T19:38:25.471Z,12.80
2023-01-04T19:41:33.967Z,12.80
2023-01-04T19:44:37.502Z,12.70
2023-01-04T19:47:39.635Z,12.80
2023-01-04T19:50:41.754Z,12.70
2023-01-04T19:53:44.744Z,12.70
2023-01-04T19:56:46.929Z,12.60
2023-01-04T19:59:49.064Z,12.70
2023-01-04T20:02:51.623Z,12.60
2023-01-04T20:05:54.335Z,12.60
2023-01-04T20:08:56.508Z,12.60
2023-01-04T20:12:00.494Z,12.60
2023-01-04T20:15:02.899Z,12.60
2023-01-04T20:18:11.812Z,12.60
2023-01-04T20:21:16.804Z,12.60
2023-01-04T20:24:19.031Z,12.60
2023-01-04T20:27:21.245Z,12.50
2023-01-04T20:30:23.379Z,12.50
2023-01-04T20:33:25.474Z,12.50
2023-01-04T20:36:31.654Z,12.50
2023-01-04T20:39:34.001Z,12.50
2023-01-04T20:42:54.645Z,12.50
2023-01-04T20:45:56.771Z,12.50
2023-01-04T20:49:00.841Z,12.50
2023-01-04T20:52:03.126Z,12.50
2023-01-04T20:55:06.005Z,12.60
2023-01-04T20:58:14.022Z,12.50
2023-01-04T21:01:17.557Z,12.50
2023-01-04T21:04:19.789Z,12.50
2023-01-04T21:07:21.979Z,12.50
2023-01-04T21:10:24.375Z,12.40
2023-01-04T21:13:28.356Z,12.50
2023-01-04T21:16:31.247Z,12.40
2023-01-04T21:19:34.623Z,12.40
2023-01-04T21:22:36.819Z,12.40
2023-01-04T21:25:40.084Z,12.40
2023-01-04T21:28:45.857Z,12.30
2023-01-04T21:31:48.036Z,12.30
2023-01-04T21:34:50.112Z,12.30
2023-01-04T21:37:52.208Z,12.20
2023-01-04T21:40:54.577Z,12.20
2023-01-04T21:43:58.126Z,12.10
2023-01-04T21:47:00.823Z,12.20
2023-01-04T21:50:03.916Z,12.10
2023-01-04T21:53:06.254Z,12.10
2023-01-04T21:56:14.239Z,12.10
2023-01-04T21:59:16.804Z,12.00
2023-01-04T22:02:20.292Z,12.00
2023-01-04T22:05:23.522Z,12.00
2023-01-04T22:08:25.689Z,12.00
2023-01-04T22:11:27.853Z,11.90
2023-01-04T22:14:29.937Z,11.90
2023-01-04T22:17:32.096Z,11.80
2023-01-04T22:20:34.265Z,11.80
2023-01-04T22:23:36.564Z,11.80
2023-01-04T22:26:39.121Z,11.70
2023-01-04T22:29:41.296Z,11.70
2023-01-04T22:32:43.798Z,11.70
2023-01-04T22:35:46.299Z,11.60
2023-01-04T22:38:48.726Z,11.70
2023-01-04T22:41:50.986Z,11.60
2023-01-04T22:44:53.167Z,11.60
2023-01-04T22:47:55.278Z,11.60
2023-01-04T22:50:58.373Z,11.50
2023-01-04T22:54:01.878Z,11.50
2023-01-04T22:57:04.108Z,11.50
2023-01-04T23:00:07.097Z,11.50
2023-01-04T23:03:09.409Z,11.40
2023-01-04T23:06:13.211Z,11.40
2023-01-04T23:09:17.385Z,11.40
2023-01-04T23:12:19.593Z,11.40
2023-01-04T23:15:21.848Z,11.40
2023-01-04T23:18:23.974Z,11.40
2023-01-04T23:21:26.187Z,11.40
2023-01-04T23:24:28.336Z,11.30
2023-01-04T23:27:30.479Z,11.30
2023-01-04T23:30:32.637Z,11.30
2023-01-04T23:33:36.705Z,11.30
2023-01-04T23:36:41.074Z,11.30
2023-01-04T23:39:44.220Z,11.20
2023-01-04T23:42:46.620Z,11.20
2023-01-04T23:45:48.716Z,11.20
2023-01-04T23:48:51.193Z,11.20
2023-01-04T23:51:54.031Z,11.20
2023-01-04T23:54:56.157Z,11.20
2023-01-04T23:57:58.514Z,11.10
